sensor_id;sensor_type;location;lat;lon;timestamp;pressure;altitude;pressure_sealevel;temperature;humidity
44079;BME280;29744;49.078;12.878;2023-02-22T00:02:15;96427.16;;;15.22;34.23
44079;BME280;29744;49.078;12.878;2023-02-22T00:07:26;96417.78;;;15.20;33.99
44079;BME280;29744;49.078;12.878;2023-02-22T00:12:27;96406.84;;;15.16;34.28
44079;BME280;29744;49.078;12.878;2023-02-22T00:17:28;96409.09;;;15.14;34.23
44079;BME280;29744;49.078;12.878;2023-02-22T00:22:29;96401.31;;;15.12;34.25
44079;BME280;29744;49.078;12.878;2023-02-22T00:27:29;96406.25;;;15.10;34.14
44079;BME280;29744;49.078;12.878;2023-02-22T00:32:30;96395.78;;;15.09;34.22
44079;BME280;29744;49.078;12.878;2023-02-22T00:37:30;96397.22;;;15.06;34.24
44079;BME280;29744;49.078;12.878;2023-02-22T00:42:31;96389.44;;;15.05;34.14
44079;BME280;29744;49.078;12.878;2023-02-22T00:47:32;96391.69;;;15.03;34.35
44079;BME280;29744;49.078;12.878;2023-02-22T00:52:32;96394.69;;;15.01;34.52
44079;BME280;29744;49.078;12.878;2023-02-22T00:57:33;96391.53;;;14.99;34.10
44079;BME280;29744;49.078;12.878;2023-02-22T01:02:40;96393.75;;;14.97;34.47
44079;BME280;29744;49.078;12.878;2023-02-22T01:07:41;96396.78;;;14.96;34.56
44079;BME280;29744;49.078;12.878;2023-02-22T01:12:41;96387.44;;;14.93;34.11
44079;BME280;29744;49.078;12.878;2023-02-22T01:17:42;96387.75;;;14.92;34.43
44079;BME280;29744;49.078;12.878;2023-02-22T01:22:48;96382.69;;;14.90;34.85
44079;BME280;29744;49.078;12.878;2023-02-22T01:27:49;96382.22;;;14.88;34.22
44079;BME280;29744;49.078;12.878;2023-02-22T01:32:50;96381.75;;;14.86;34.21
44079;BME280;29744;49.078;12.878;2023-02-22T01:37:52;96387.47;;;14.85;34.34
44079;BME280;29744;49.078;12.878;2023-02-22T01:42:54;96378.13;;;14.82;34.50
44079;BME280;29744;49.078;12.878;2023-02-22T01:53:00;96372.25;;;14.80;34.33
44079;BME280;29744;49.078;12.878;2023-02-22T01:58:03;96372.59;;;14.78;34.33
44079;BME280;29744;49.078;12.878;2023-02-22T02:03:11;96367.84;;;14.75;34.30
44079;BME280;29744;49.078;12.878;2023-02-22T02:08:30;96361.19;;;14.73;34.69
44079;BME280;29744;49.078;12.878;2023-02-22T02:13:35;96354.19;;;14.72;34.54
44079;BME280;29744;49.078;12.878;2023-02-22T02:18:35;96352.63;;;14.71;34.42
44079;BME280;29744;49.078;12.878;2023-02-22T02:23:57;96354.84;;;14.69;34.34
44079;BME280;29744;49.078;12.878;2023-02-22T02:34:31;96343.91;;;14.65;34.38
44079;BME280;29744;49.078;12.878;2023-02-22T02:39:40;96338.84;;;14.64;34.43
44079;BME280;29744;49.078;12.878;2023-02-22T02:50:04;96326.78;;;14.61;34.42
44079;BME280;29744;49.078;12.878;2023-02-22T02:55:07;96323.63;;;14.59;34.48
44079;BME280;29744;49.078;12.878;2023-02-22T03:00:08;96327.44;;;14.58;34.83
44079;BME280;29744;49.078;12.878;2023-02-22T03:11:02;96317.63;;;14.54;34.75
44079;BME280;29744;49.078;12.878;2023-02-22T03:21:20;96311.44;;;14.53;34.85
44079;BME280;29744;49.078;12.878;2023-02-22T03:26:42;96313.69;;;14.51;34.81
44079;BME280;29744;49.078;12.878;2023-02-22T03:31:49;96304.78;;;14.50;34.71
44079;BME280;29744;49.078;12.878;2023-02-22T03:36:58;96307.81;;;14.49;34.62
44079;BME280;29744;49.078;12.878;2023-02-22T03:42:08;96307.81;;;14.49;34.75
44079;BME280;29744;49.078;12.878;2023-02-22T03:47:12;96303.06;;;14.46;34.64
44079;BME280;29744;49.078;12.878;2023-02-22T03:52:13;96303.88;;;14.46;34.52
44079;BME280;29744;49.078;12.878;2023-02-22T03:57:18;96305.31;;;14.44;34.96
44079;BME280;29744;49.078;12.878;2023-02-22T04:02:21;96301.81;;;14.43;34.93
44079;BME280;29744;49.078;12.878;2023-02-22T04:07:22;96302.13;;;14.42;34.48
44079;BME280;29744;49.078;12.878;2023-02-22T04:12:23;96305.63;;;14.42;34.63
44079;BME280;29744;49.078;12.878;2023-02-22T04:17:23;96298.97;;;14.40;34.92
44079;BME280;29744;49.078;12.878;2023-02-22T04:22:23;96297.41;;;14.39;35.00
44079;BME280;29744;49.078;12.878;2023-02-22T04:27:23;96293.13;;;14.38;34.92
44079;BME280;29744;49.078;12.878;2023-02-22T04:32:24;96296.94;;;14.37;34.62
44079;BME280;29744;49.078;12.878;2023-02-22T04:37:24;96286.13;;;14.37;34.88
44079;BME280;29744;49.078;12.878;2023-02-22T04:42:24;96285.34;;;14.36;34.83
44079;BME280;29744;49.078;12.878;2023-02-22T04:47:25;96278.84;;;14.37;34.89
44079;BME280;29744;49.078;12.878;2023-02-22T04:52:25;96282.13;;;14.43;34.91
44079;BME280;29744;49.078;12.878;2023-02-22T04:57:26;96271.16;;;14.48;34.84
44079;BME280;29744;49.078;12.878;2023-02-22T05:02:26;96279.53;;;14.55;34.88
44079;BME280;29744;49.078;12.878;2023-02-22T05:07:26;96276.44;;;14.65;34.56
44079;BME280;29744;49.078;12.878;2023-02-22T05:12:27;96267.97;;;14.75;34.92
44079;BME280;29744;49.078;12.878;2023-02-22T05:17:27;96262.63;;;14.88;34.91
44079;BME280;29744;49.078;12.878;2023-02-22T05:22:28;96259.66;;;15.01;34.74
44079;BME280;29744;49.078;12.878;2023-02-22T05:27:28;96264.03;;;15.14;34.66
44079;BME280;29744;49.078;12.878;2023-02-22T05:32:28;96261.81;;;15.29;34.66
44079;BME280;29744;49.078;12.878;2023-02-22T05:37:29;96259.63;;;15.43;34.27
44079;BME280;29744;49.078;12.878;2023-02-22T05:42:29;96255.50;;;15.58;34.11
44079;BME280;29744;49.078;12.878;2023-02-22T05:47:29;96260.94;;;15.70;34.24
44079;BME280;29744;49.078;12.878;2023-02-22T05:52:29;96263.34;;;15.84;33.99
44079;BME280;29744;49.078;12.878;2023-02-22T05:57:30;96257.63;;;15.97;33.71
44079;BME280;29744;49.078;12.878;2023-02-22T06:02:30;96266.41;;;16.06;34.07
44079;BME280;29744;49.078;12.878;2023-02-22T06:07:30;96270.59;;;16.16;33.92
44079;BME280;29744;49.078;12.878;2023-02-22T06:12:30;96268.91;;;16.24;33.73
44079;BME280;29744;49.078;12.878;2023-02-22T06:17:31;96272.97;;;16.30;33.72
44079;BME280;29744;49.078;12.878;2023-02-22T06:22:31;96275.44;;;16.35;33.52
44079;BME280;29744;49.078;12.878;2023-02-22T06:27:32;96269.34;;;16.38;33.45
44079;BME280;29744;49.078;12.878;2023-02-22T06:32:32;96271.72;;;16.39;33.23
44079;BME280;29744;49.078;12.878;2023-02-22T06:37:33;96283.00;;;16.41;33.36
44079;BME280;29744;49.078;12.878;2023-02-22T06:42:33;96284.59;;;16.42;33.43
44079;BME280;29744;49.078;12.878;2023-02-22T06:47:37;96284.59;;;16.42;33.03
44079;BME280;29744;49.078;12.878;2023-02-22T06:52:42;96289.22;;;16.42;33.02
44079;BME280;29744;49.078;12.878;2023-02-22T06:57:42;96293.84;;;16.41;33.55
44079;BME280;29744;49.078;12.878;2023-02-22T07:02:43;96299.91;;;16.38;33.20
44079;BME280;29744;49.078;12.878;2023-02-22T07:07:43;96299.91;;;16.38;33.28
44079;BME280;29744;49.078;12.878;2023-02-22T07:12:44;96296.75;;;16.36;33.10
44079;BME280;29744;49.078;12.878;2023-02-22T07:17:44;96292.81;;;16.34;33.26
44079;BME280;29744;49.078;12.878;2023-02-22T07:22:45;96288.06;;;16.31;33.47
44079;BME280;29744;49.078;12.878;2023-02-22T07:27:46;96294.94;;;16.28;32.77
44079;BME280;29744;49.078;12.878;2023-02-22T07:32:47;96284.69;;;16.22;33.09
44079;BME280;29744;49.078;12.878;2023-02-22T07:37:47;96298.44;;;16.17;32.98
44079;BME280;29744;49.078;12.878;2023-02-22T07:42:56;96285.91;;;16.12;32.99
44079;BME280;29744;49.078;12.878;2023-02-22T07:47:57;96277.34;;;16.10;33.04
44079;BME280;29744;49.078;12.878;2023-02-22T07:53:01;96276.56;;;16.09;33.27
44079;BME280;29744;49.078;12.878;2023-02-22T07:58:04;96276.09;;;16.07;33.01
44079;BME280;29744;49.078;12.878;2023-02-22T08:03:07;96282.97;;;16.05;33.39
44079;BME280;29744;49.078;12.878;2023-02-22T08:08:07;96276.31;;;16.02;33.04
44079;BME280;29744;49.078;12.878;2023-02-22T08:13:08;96270.13;;;16.02;33.14
44079;BME280;29744;49.078;12.878;2023-02-22T08:18:14;96274.28;;;15.99;33.47
44079;BME280;29744;49.078;12.878;2023-02-22T08:23:15;96273.84;;;15.97;32.87
44079;BME280;29744;49.078;12.878;2023-02-22T08:28:18;96270.69;;;15.95;33.02
44079;BME280;29744;49.078;12.878;2023-02-22T08:33:20;96265.16;;;15.92;33.35
44079;BME280;29744;49.078;12.878;2023-02-22T08:38:24;96267.75;;;15.88;33.24
44079;BME280;29744;49.078;12.878;2023-02-22T08:43:24;96256.03;;;15.84;33.34
44079;BME280;29744;49.078;12.878;2023-02-22T08:48:25;96259.41;;;15.81;33.42
44079;BME280;29744;49.078;12.878;2023-02-22T08:53:25;96258.91;;;15.79;33.47
44079;BME280;29744;49.078;12.878;2023-02-22T08:58:25;96244.16;;;15.76;33.36
44079;BME280;29744;49.078;12.878;2023-02-22T09:03:26;96242.13;;;15.73;33.63
44079;BME280;29744;49.078;12.878;2023-02-22T09:08:27;96242.00;;;15.70;33.78
44079;BME280;29744;49.078;12.878;2023-02-22T09:13:27;96238.84;;;15.68;33.48
44079;BME280;29744;49.078;12.878;2023-02-22T09:18:27;96234.91;;;15.65;33.20
44079;BME280;29744;49.078;12.878;2023-02-22T09:23:28;96231.75;;;15.63;33.54
44079;BME280;29744;49.078;12.878;2023-02-22T09:28:28;96225.88;;;15.61;33.42
44079;BME280;29744;49.078;12.878;2023-02-22T09:33:29;96229.25;;;15.58;33.69
44079;BME280;29744;49.078;12.878;2023-02-22T09:38:29;96222.59;;;15.56;33.49
44079;BME280;29744;49.078;12.878;2023-02-22T09:48:33;96201.66;;;15.53;33.50
44079;BME280;29744;49.078;12.878;2023-02-22T09:53:41;96202.31;;;15.50;33.44
44079;BME280;29744;49.078;12.878;2023-02-22T09:58:45;96196.47;;;15.48;33.76
44079;BME280;29744;49.078;12.878;2023-02-22T10:03:58;96191.72;;;15.44;33.77
44079;BME280;29744;49.078;12.878;2023-02-22T10:09:02;96187.44;;;15.43;33.82
44079;BME280;29744;49.078;12.878;2023-02-22T10:19:47;96176.41;;;15.36;33.94
44079;BME280;29744;49.078;12.878;2023-02-22T10:25:11;96166.25;;;15.33;34.01
44079;BME280;29744;49.078;12.878;2023-02-22T10:35:31;96143.75;;;15.29;33.93
44079;BME280;29744;49.078;12.878;2023-02-22T10:40:32;96153.75;;;15.29;33.62
44079;BME280;29744;49.078;12.878;2023-02-22T10:45:33;96147.13;;;15.26;34.16
44079;BME280;29744;49.078;12.878;2023-02-22T10:50:38;96146.66;;;15.24;33.64
44079;BME280;29744;49.078;12.878;2023-02-22T10:56:12;96135.72;;;15.21;33.94
44079;BME280;29744;49.078;12.878;2023-02-22T11:06:32;96121.31;;;15.17;33.92
44079;BME280;29744;49.078;12.878;2023-02-22T11:11:33;96121.66;;;15.15;33.89
44079;BME280;29744;49.078;12.878;2023-02-22T11:16:46;96114.69;;;15.14;33.69
44079;BME280;29744;49.078;12.878;2023-02-22T11:21:59;96104.22;;;15.12;34.07
44079;BME280;29744;49.078;12.878;2023-02-22T11:27:08;96098.34;;;15.10;34.24
44079;BME280;29744;49.078;12.878;2023-02-22T11:32:19;96085.53;;;15.07;34.24
44079;BME280;29744;49.078;12.878;2023-02-22T11:42:26;96076.97;;;15.05;34.28
44079;BME280;29744;49.078;12.878;2023-02-22T11:47:27;96075.38;;;15.04;34.30
44079;BME280;29744;49.078;12.878;2023-02-22T11:52:32;96063.00;;;15.03;34.05
44079;BME280;29744;49.078;12.878;2023-02-22T11:58:32;96062.06;;;14.99;34.14
44079;BME280;29744;49.078;12.878;2023-02-22T12:03:53;96051.59;;;14.98;34.43
44079;BME280;29744;49.078;12.878;2023-02-22T12:09:19;96049.25;;;14.96;34.23
44079;BME280;29744;49.078;12.878;2023-02-22T12:19:49;96037.97;;;14.94;34.01
44079;BME280;29744;49.078;12.878;2023-02-22T12:25:01;96039.09;;;14.93;34.10
44079;BME280;29744;49.078;12.878;2023-02-22T12:35:41;96030.56;;;14.91;34.05
44079;BME280;29744;49.078;12.878;2023-02-22T12:40:59;96033.94;;;14.88;34.34
44079;BME280;29744;49.078;12.878;2023-02-22T12:46:12;96033.13;;;14.88;34.39
44079;BME280;29744;49.078;12.878;2023-02-22T12:51:24;96030.44;;;14.88;34.05
44079;BME280;29744;49.078;12.878;2023-02-22T13:01:33;96014.25;;;14.88;34.18
44079;BME280;29744;49.078;12.878;2023-02-22T13:22:42;95995.09;;;14.80;34.54
44079;BME280;29744;49.078;12.878;2023-02-22T13:27:49;95995.09;;;14.80;34.29
44079;BME280;29744;49.078;12.878;2023-02-22T13:38:40;95989.59;;;14.77;34.37
44079;BME280;29744;49.078;12.878;2023-02-22T13:44:16;95987.22;;;14.75;34.56
44079;BME280;29744;49.078;12.878;2023-02-22T13:54:41;95981.03;;;14.75;34.70
44079;BME280;29744;49.078;12.878;2023-02-22T13:59:45;95981.38;;;14.73;34.42
44079;BME280;29744;49.078;12.878;2023-02-22T14:04:46;95982.94;;;14.74;34.14
44079;BME280;29744;49.078;12.878;2023-02-22T14:09:51;95981.38;;;14.73;34.65
44079;BME280;29744;49.078;12.878;2023-02-22T14:15:13;95973.94;;;14.70;34.77
44079;BME280;29744;49.078;12.878;2023-02-22T14:25:32;95969.34;;;14.71;34.46
44079;BME280;29744;49.078;12.878;2023-02-22T14:30:35;95970.13;;;14.71;34.20
44079;BME280;29744;49.078;12.878;2023-02-22T14:35:39;95972.03;;;14.71;34.46
44079;BME280;29744;49.078;12.878;2023-02-22T14:40:41;95967.75;;;14.70;34.47
44079;BME280;29744;49.078;12.878;2023-02-22T14:45:48;95973.16;;;14.70;34.61
44079;BME280;29744;49.078;12.878;2023-02-22T14:50:53;95966.97;;;14.69;34.62
44079;BME280;29744;49.078;12.878;2023-02-22T14:55:57;95968.09;;;14.68;34.54
44079;BME280;29744;49.078;12.878;2023-02-22T15:06:21;95963.03;;;14.67;34.61
44079;BME280;29744;49.078;12.878;2023-02-22T15:11:25;95954.94;;;14.67;34.31
44079;BME280;29744;49.078;12.878;2023-02-22T15:16:32;95956.41;;;14.64;34.69
44079;BME280;29744;49.078;12.878;2023-02-22T15:31:37;95948.97;;;14.61;34.42
44079;BME280;29744;49.078;12.878;2023-02-22T15:36:38;95943.91;;;14.60;34.81
44079;BME280;29744;49.078;12.878;2023-02-22T15:41:38;95951.22;;;14.59;34.73
44079;BME280;29744;49.078;12.878;2023-02-22T15:46:39;95940.75;;;14.58;34.85
44079;BME280;29744;49.078;12.878;2023-02-22T15:51:41;95942.66;;;14.57;34.56
44079;BME280;29744;49.078;12.878;2023-02-22T15:56:50;95948.41;;;14.56;34.66
44079;BME280;29744;49.078;12.878;2023-02-22T16:01:56;95948.75;;;14.54;34.55
44079;BME280;29744;49.078;12.878;2023-02-22T16:07:05;95944.81;;;14.52;34.77
44079;BME280;29744;49.078;12.878;2023-02-22T16:17:28;95951.78;;;14.53;34.96
44079;BME280;29744;49.078;12.878;2023-02-22T16:22:35;95951.88;;;14.56;34.94
44079;BME280;29744;49.078;12.878;2023-02-22T16:27:40;95951.69;;;14.61;34.70
44079;BME280;29744;49.078;12.878;2023-02-22T16:32:48;95943.81;;;14.68;34.74
44079;BME280;29744;49.078;12.878;2023-02-22T16:37:56;95953.72;;;14.76;34.91
44079;BME280;29744;49.078;12.878;2023-02-22T16:42:59;95947.09;;;14.86;34.67
44079;BME280;29744;49.078;12.878;2023-02-22T16:47:59;95951.25;;;14.96;34.69
44079;BME280;29744;49.078;12.878;2023-02-22T16:53:03;95957.81;;;15.07;34.56
44079;BME280;29744;49.078;12.878;2023-02-22T16:58:04;95957.00;;;15.19;34.22
44079;BME280;29744;49.078;12.878;2023-02-22T17:03:05;95957.78;;;15.31;34.41
44079;BME280;29744;49.078;12.878;2023-02-22T17:08:05;95958.53;;;15.44;34.13
44079;BME280;29744;49.078;12.878;2023-02-22T17:13:06;95966.63;;;15.56;34.42
44079;BME280;29744;49.078;12.878;2023-02-22T17:18:12;95971.66;;;15.70;34.18
44079;BME280;29744;49.078;12.878;2023-02-22T17:23:15;95979.78;;;15.82;33.72
44079;BME280;29744;49.078;12.878;2023-02-22T17:28:15;95977.03;;;15.94;33.83
44079;BME280;29744;49.078;12.878;2023-02-22T17:33:23;95976.19;;;16.06;34.06
44079;BME280;29744;49.078;12.878;2023-02-22T17:38:25;95976.94;;;16.19;33.51
44079;BME280;29744;49.078;12.878;2023-02-22T17:43:28;95986.47;;;16.28;33.75
44079;BME280;29744;49.078;12.878;2023-02-22T17:48:28;95978.97;;;16.37;33.76
44079;BME280;29744;49.078;12.878;2023-02-22T17:53:28;95980.78;;;16.46;33.79
44079;BME280;29744;49.078;12.878;2023-02-22T17:58:29;95987.50;;;16.52;33.38
44079;BME280;29744;49.078;12.878;2023-02-22T18:03:30;95971.03;;;16.57;33.45
44079;BME280;29744;49.078;12.878;2023-02-22T18:08:30;95972.28;;;16.59;33.54
44079;BME280;29744;49.078;12.878;2023-02-22T18:13:31;95976.97;;;16.62;33.35
44079;BME280;29744;49.078;12.878;2023-02-22T18:18:31;95982.06;;;16.64;32.97
44079;BME280;29744;49.078;12.878;2023-02-22T18:23:32;95975.50;;;16.65;33.24
44079;BME280;29744;49.078;12.878;2023-02-22T18:28:32;95977.44;;;16.64;33.19
44079;BME280;29744;49.078;12.878;2023-02-22T18:33:32;95968.50;;;16.64;33.17
44079;BME280;29744;49.078;12.878;2023-02-22T18:38:33;95981.25;;;16.63;33.23
44079;BME280;29744;49.078;12.878;2023-02-22T18:43:33;95971.91;;;16.61;33.21
44079;BME280;29744;49.078;12.878;2023-02-22T18:48:35;95974.19;;;16.59;33.28
44079;BME280;29744;49.078;12.878;2023-02-22T18:53:37;95971.03;;;16.57;32.97
44079;BME280;29744;49.078;12.878;2023-02-22T18:58:37;95973.63;;;16.53;33.14
44079;BME280;29744;49.078;12.878;2023-02-22T19:03:38;95975.91;;;16.51;33.12
44079;BME280;29744;49.078;12.878;2023-02-22T19:08:41;95979.28;;;16.48;33.24
44079;BME280;29744;49.078;12.878;2023-02-22T19:13:42;95969.94;;;16.46;33.01
44079;BME280;29744;49.078;12.878;2023-02-22T19:18:46;95971.78;;;16.41;33.45
44079;BME280;29744;49.078;12.878;2023-02-22T19:23:46;95972.91;;;16.40;33.55
44079;BME280;29744;49.078;12.878;2023-02-22T19:28:47;95979.09;;;16.41;33.29
44079;BME280;29744;49.078;12.878;2023-02-22T19:33:48;95979.09;;;16.41;33.23
44079;BME280;29744;49.078;12.878;2023-02-22T19:38:50;95976.41;;;16.41;33.28
44079;BME280;29744;49.078;12.878;2023-02-22T19:43:51;95987.22;;;16.41;33.68
44079;BME280;29744;49.078;12.878;2023-02-22T19:48:52;95985.75;;;16.44;33.02
44079;BME280;29744;49.078;12.878;2023-02-22T19:54:07;95983.03;;;16.44;32.95
44079;BME280;29744;49.078;12.878;2023-02-22T19:59:09;95982.69;;;16.45;33.28
44079;BME280;29744;49.078;12.878;2023-02-22T20:04:14;95988.09;;;16.45;33.22
44079;BME280;29744;49.078;12.878;2023-02-22T20:09:18;95988.91;;;16.46;33.28
44079;BME280;29744;49.078;12.878;2023-02-22T20:14:24;95990.03;;;16.45;33.00
44079;BME280;29744;49.078;12.878;2023-02-22T20:19:27;95990.38;;;16.43;33.52
44079;BME280;29744;49.078;12.878;2023-02-22T20:24:27;95998.84;;;16.41;33.55
44079;BME280;29744;49.078;12.878;2023-02-22T20:29:27;95999.16;;;16.40;32.92
44079;BME280;29744;49.078;12.878;2023-02-22T20:34:31;96001.41;;;16.38;33.30
44079;BME280;29744;49.078;12.878;2023-02-22T20:39:32;96003.69;;;16.36;33.08
44079;BME280;29744;49.078;12.878;2023-02-22T20:44:32;96004.38;;;16.33;33.11
44079;BME280;29744;49.078;12.878;2023-02-22T20:49:33;96003.16;;;16.30;33.24
44079;BME280;29744;49.078;12.878;2023-02-22T20:54:34;96003.84;;;16.27;33.17
44079;BME280;29744;49.078;12.878;2023-02-22T20:59:37;96009.94;;;16.24;33.39
44079;BME280;29744;49.078;12.878;2023-02-22T21:04:37;96009.84;;;16.21;33.28
44079;BME280;29744;49.078;12.878;2023-02-22T21:09:37;96018.66;;;16.18;33.19
44079;BME280;29744;49.078;12.878;2023-02-22T21:14:39;96014.72;;;16.15;33.47
44079;BME280;29744;49.078;12.878;2023-02-22T21:19:40;96018.88;;;16.13;33.40
44079;BME280;29744;49.078;12.878;2023-02-22T21:24:41;96020.38;;;16.10;33.74
44079;BME280;29744;49.078;12.878;2023-02-22T21:29:41;96018.34;;;16.07;33.61
44079;BME280;29744;49.078;12.878;2023-02-22T21:34:42;96014.41;;;16.04;33.50
44079;BME280;29744;49.078;12.878;2023-02-22T21:39:42;96012.38;;;16.01;33.45
44079;BME280;29744;49.078;12.878;2023-02-22T21:44:46;96020.41;;;15.98;33.68
44079;BME280;29744;49.078;12.878;2023-02-22T21:49:47;96017.59;;;15.94;33.35
44079;BME280;29744;49.078;12.878;2023-02-22T21:54:48;96012.88;;;15.91;33.68
44079;BME280;29744;49.078;12.878;2023-02-22T21:59:48;96008.16;;;15.88;33.94
44079;BME280;29744;49.078;12.878;2023-02-22T22:04:52;96008.03;;;15.85;33.84
44079;BME280;29744;49.078;12.878;2023-02-22T22:09:52;96010.66;;;15.81;33.80
44079;BME280;29744;49.078;12.878;2023-02-22T22:14:55;96017.50;;;15.78;33.42
44079;BME280;29744;49.078;12.878;2023-02-22T22:19:55;96015.47;;;15.75;33.93
44079;BME280;29744;49.078;12.878;2023-02-22T22:24:56;96014.25;;;15.73;33.44
44079;BME280;29744;49.078;12.878;2023-02-22T22:29:56;96005.22;;;15.69;33.77
44079;BME280;29744;49.078;12.878;2023-02-22T22:34:58;96010.53;;;15.65;34.05
44079;BME280;29744;49.078;12.878;2023-02-22T22:39:58;96011.22;;;15.62;33.45
44079;BME280;29744;49.078;12.878;2023-02-22T22:44:59;96007.28;;;15.60;33.78
44079;BME280;29744;49.078;12.878;2023-02-22T22:49:59;96004.91;;;15.58;33.90
44079;BME280;29744;49.078;12.878;2023-02-22T22:55:01;96013.38;;;15.57;33.99
44079;BME280;29744;49.078;12.878;2023-02-22T23:00:02;95997.03;;;15.53;33.92
44079;BME280;29744;49.078;12.878;2023-02-22T23:05:23;96016.28;;;15.52;34.19
44079;BME280;29744;49.078;12.878;2023-02-22T23:10:28;96013.16;;;15.50;34.05
44079;BME280;29744;49.078;12.878;2023-02-22T23:15:28;96025.44;;;15.47;34.26
44079;BME280;29744;49.078;12.878;2023-02-22T23:20:29;96019.91;;;15.43;34.33
44079;BME280;29744;49.078;12.878;2023-02-22T23:25:29;96019.47;;;15.41;34.25
44079;BME280;29744;49.078;12.878;2023-02-22T23:30:29;96023.63;;;15.39;34.16
44079;BME280;29744;49.078;12.878;2023-02-22T23:35:29;96017.00;;;15.36;34.04
44079;BME280;29744;49.078;12.878;2023-02-22T23:40:30;96025.78;;;15.33;33.82
44079;BME280;29744;49.078;12.878;2023-02-22T23:45:30;96021.84;;;15.31;34.27
44079;BME280;29744;49.078;12.878;2023-02-22T23:50:37;96025.22;;;15.28;34.13
44079;BME280;29744;49.078;12.878;2023-02-22T23:55:37;96011.25;;;15.26;34.02
